Masset, Canada
Current Conditions -  °F | °C
As of 2:00 PM on Tuesday 25 Nov 2014 (Local Time) from CZMT Reporting Station
Rain Showers Rain Showers  
Wind Chill:   Ceiling: 1500
Heat Index:   Visibility: 15mi
Dew Point:   Wind: 3mph
Humidity: 93%   Direction: 220°SW
Pressure: 30.18"   Gusts: NA
Location:  54.02°N, 132.15°W
Report Text: CZMT 252200Z 22003KT 200V260 15SM -SHRA BKN015 OVC040 06/05 A3018 RMK SC5SC3 PCPN VRY LGT SLP220
Loading
Personal Weather Stations






























Interactive Weather Map New forecast layout! Learn more

10-Day Weather Forecast

Advertisements
Track Severe Weather on mobile